Terminal Aerodrome Forecast
Issued by NWS San Angelo, TX

Home | Current Version | Previous Version | Text Only | Print | Product List | Glossary On
Versions: 1 2 3 4 5 6 7 8 9 10 11 12 13 14 15
000
FTUS44 KSJT 301100
TAFSJT
TAF
KSJT 301136Z 3012/3112 16008KT P6SM SKC
     FM301800 22010KT P6SM SCT040
     FM302100 28010KT P6SM BKN040
     FM310000 03007KT P6SM OVC050
     FM310600 04010KT P6SM SKC=

USA.gov is the U.S. government's official web portal to all federal, state and local government web resources and services.